createdAt,value
2023-04-18T00:01:51.922Z,16.23
2023-04-18T00:04:19.457Z,18.50
2023-04-18T00:06:47.260Z,18.20
2023-04-18T00:09:14.067Z,18.53
2023-04-18T00:11:41.297Z,16.87
2023-04-18T00:14:08.531Z,18.03
2023-04-18T00:16:36.240Z,19.17
2023-04-18T00:19:04.739Z,18.17
2023-04-18T00:21:32.977Z,21.73
2023-04-18T00:23:59.841Z,20.90
2023-04-18T00:26:28.154Z,18.73
2023-04-18T00:28:55.003Z,20.27
2023-04-18T00:31:21.832Z,19.30
2023-04-18T00:33:48.768Z,19.03
2023-04-18T00:36:15.628Z,20.50
2023-04-18T00:38:42.518Z,21.50
2023-04-18T00:41:09.363Z,20.67
2023-04-18T00:43:37.134Z,21.40
2023-04-18T00:46:03.984Z,22.00
2023-04-18T00:48:31.282Z,21.93
2023-04-18T00:51:00.190Z,22.80
2023-04-18T00:53:28.128Z,23.00
2023-04-18T00:55:55.525Z,22.23
2023-04-18T00:58:22.545Z,23.30
2023-04-18T01:00:49.682Z,25.77
2023-04-18T01:03:18.410Z,24.40
2023-04-18T01:05:46.498Z,23.87
2023-04-18T01:08:13.996Z,22.83
2023-04-18T01:10:40.876Z,22.57
2023-04-18T01:13:19.690Z,21.93
2023-04-18T01:15:50.871Z,24.37
2023-04-18T01:18:19.027Z,24.90
2023-04-18T01:20:51.281Z,23.93
2023-04-18T01:23:19.739Z,23.90
2023-04-18T01:25:49.146Z,24.97
2023-04-18T01:28:16.484Z,24.30
2023-04-18T01:30:43.330Z,22.83
2023-04-18T01:33:10.531Z,23.40
2023-04-18T01:35:37.350Z,22.53
2023-04-18T01:38:04.258Z,22.17
2023-04-18T01:40:31.341Z,24.23
2023-04-18T01:42:58.258Z,22.47
2023-04-18T01:45:25.115Z,23.13
2023-04-18T01:47:52.071Z,23.70
2023-04-18T01:50:18.991Z,25.43
2023-04-18T01:52:45.920Z,28.67
2023-04-18T01:55:12.812Z,23.53
2023-04-18T01:57:39.823Z,23.60
2023-04-18T02:00:08.032Z,25.83
2023-04-18T02:02:35.108Z,26.97
2023-04-18T02:05:02.088Z,23.70
2023-04-18T02:07:29.061Z,24.40
2023-04-18T02:09:55.925Z,25.47
2023-04-18T02:12:22.737Z,26.40
2023-04-18T02:14:53.540Z,25.90
2023-04-18T02:17:23.972Z,23.20
2023-04-18T02:19:51.649Z,25.63
2023-04-18T02:22:18.826Z,24.57
2023-04-18T02:24:46.109Z,25.10
2023-04-18T02:27:12.986Z,27.23
2023-04-18T02:29:39.950Z,26.70
2023-04-18T02:32:07.247Z,26.60
2023-04-18T02:34:34.224Z,26.70
2023-04-18T02:37:01.022Z,27.33
2023-04-18T02:39:27.935Z,24.70
2023-04-18T02:41:54.781Z,25.37
2023-04-18T02:44:21.550Z,25.73
2023-04-18T02:46:48.459Z,26.87
2023-04-18T02:49:15.326Z,25.47
2023-04-18T02:51:42.177Z,26.17
2023-04-18T02:54:08.983Z,25.70
2023-04-18T02:56:39.927Z,25.43
2023-04-18T02:59:07.333Z,23.07
2023-04-18T03:01:34.401Z,24.53
2023-04-18T03:04:01.320Z,23.13
2023-04-18T03:06:28.149Z,23.13
2023-04-18T03:08:55.822Z,23.57
2023-04-18T03:11:22.807Z,25.83
2023-04-18T03:13:49.594Z,23.90
2023-04-18T03:16:16.864Z,22.57
2023-04-18T03:18:43.833Z,24.23
2023-04-18T03:21:11.420Z,26.43
2023-04-18T03:23:38.574Z,23.80
2023-04-18T03:26:13.730Z,25.63
2023-04-18T03:28:40.804Z,26.07
2023-04-18T03:31:07.738Z,26.10
2023-04-18T03:33:34.565Z,25.40
2023-04-18T03:36:01.540Z,24.83
2023-04-18T03:38:28.371Z,28.67
2023-04-18T03:40:55.265Z,29.37
2023-04-18T03:43:22.068Z,28.13
2023-04-18T03:45:49.028Z,26.23
2023-04-18T03:48:16.022Z,26.17
2023-04-18T03:50:42.806Z,27.87
2023-04-18T03:53:09.642Z,26.50
2023-04-18T03:55:36.572Z,27.07
2023-04-18T03:58:03.449Z,25.50
2023-04-18T04:00:30.454Z,26.87
2023-04-18T04:02:57.414Z,29.07
2023-04-18T04:05:24.479Z,30.33
2023-04-18T04:07:51.353Z,29.30
2023-04-18T04:10:18.157Z,27.83
2023-04-18T04:12:45.075Z,29.80
2023-04-18T04:15:12.272Z,30.03
2023-04-18T04:17:39.215Z,27.93
2023-04-18T04:20:07.321Z,29.87
2023-04-18T04:22:34.506Z,28.60
2023-04-18T04:25:01.356Z,29.53
2023-04-18T04:27:28.234Z,27.20
2023-04-18T04:29:56.334Z,30.67
2023-04-18T04:32:25.012Z,27.57
2023-04-18T04:34:52.155Z,27.80
2023-04-18T04:37:21.486Z,29.47
2023-04-18T04:39:48.367Z,31.50
2023-04-18T04:42:15.300Z,30.70
2023-04-18T04:44:42.996Z,30.73
2023-04-18T04:47:09.859Z,28.10
2023-04-18T04:49:36.723Z,29.90
2023-04-18T04:52:03.535Z,29.87
2023-04-18T04:54:30.505Z,30.67
2023-04-18T04:56:57.375Z,30.73
2023-04-18T04:59:24.223Z,28.07
2023-04-18T05:01:51.153Z,26.60
2023-04-18T05:04:18.512Z,27.10
2023-04-18T05:06:46.115Z,33.13
2023-04-18T05:09:13.574Z,31.27
2023-04-18T05:11:40.525Z,30.17
2023-04-18T05:14:07.459Z,29.20
2023-04-18T05:16:34.657Z,32.73
2023-04-18T05:19:01.592Z,31.00
2023-04-18T05:21:29.352Z,31.80
2023-04-18T05:23:56.291Z,29.00
2023-04-18T05:26:23.424Z,27.40
2023-04-18T05:28:50.355Z,29.60
2023-04-18T05:31:17.321Z,29.23
2023-04-18T05:33:44.201Z,28.07
2023-04-18T05:36:11.161Z,31.70
2023-04-18T05:38:38.050Z,29.83
2023-04-18T05:41:04.994Z,27.30
2023-04-18T05:43:31.852Z,28.47
2023-04-18T05:45:58.752Z,26.20
2023-04-18T05:48:25.758Z,28.70
2023-04-18T05:50:52.636Z,29.80
2023-04-18T05:53:19.482Z,26.00
2023-04-18T05:55:48.653Z,28.40
2023-04-18T05:58:16.029Z,28.87
2023-04-18T06:00:43.456Z,26.97
2023-04-18T06:03:11.312Z,26.47
2023-04-18T06:05:40.988Z,25.77
2023-04-18T06:08:08.118Z,24.20
2023-04-18T06:10:36.455Z,26.13
2023-04-18T06:13:05.897Z,23.53
2023-04-18T06:15:32.812Z,23.27
2023-04-18T06:17:59.759Z,22.20
2023-04-18T06:20:26.697Z,21.03
2023-04-18T06:22:53.586Z,19.87
2023-04-18T06:25:20.797Z,22.17
2023-04-18T06:27:47.629Z,21.47
2023-04-18T06:30:14.971Z,21.50
2023-04-18T06:32:41.910Z,22.20
2023-04-18T06:35:09.033Z,23.30
2023-04-18T06:37:35.992Z,20.93
2023-04-18T06:40:03.004Z,21.93
2023-04-18T06:42:29.845Z,20.27
2023-04-18T06:44:56.701Z,22.30
2023-04-18T06:47:23.597Z,22.33
2023-04-18T06:49:50.511Z,23.27
2023-04-18T06:52:17.386Z,21.70
2023-04-18T06:54:44.379Z,23.43
2023-04-18T06:57:11.334Z,24.37
2023-04-18T06:59:38.459Z,21.43
2023-04-18T07:02:05.394Z,23.13
2023-04-18T07:04:32.422Z,23.77
2023-04-18T07:06:59.346Z,21.43
2023-04-18T07:09:26.207Z,20.00
2023-04-18T07:11:53.154Z,18.77
2023-04-18T07:14:24.387Z,22.20
2023-04-18T07:16:51.774Z,17.73
2023-04-18T07:19:18.640Z,18.77
2023-04-18T07:21:45.989Z,16.90
2023-04-18T07:24:13.539Z,15.87
2023-04-18T07:26:41.013Z,15.87
2023-04-18T07:29:07.893Z,15.33
2023-04-18T07:31:34.910Z,16.23
2023-04-18T07:34:01.789Z,16.43
2023-04-18T07:36:28.734Z,16.97
2023-04-18T07:38:55.698Z,16.73
2023-04-18T07:41:22.646Z,19.23
2023-04-18T07:43:49.466Z,17.63
2023-04-18T07:46:16.440Z,20.50
2023-04-18T07:48:43.315Z,20.67
2023-04-18T07:51:11.316Z,20.37
2023-04-18T07:53:38.268Z,17.50
2023-04-18T07:56:05.418Z,18.57
2023-04-18T07:58:34.288Z,18.77
2023-04-18T08:01:01.159Z,21.13
2023-04-18T08:03:28.165Z,19.57
2023-04-18T08:05:55.894Z,18.33
2023-04-18T08:08:22.680Z,18.60
2023-04-18T08:10:49.599Z,18.20
2023-04-18T08:13:17.873Z,17.53
2023-04-18T08:15:44.754Z,17.50
2023-04-18T08:18:11.563Z,17.00
2023-04-18T08:20:38.674Z,18.83
2023-04-18T08:23:08.590Z,16.30
2023-04-18T08:25:36.688Z,17.03
2023-04-18T08:28:04.171Z,18.83
2023-04-18T08:30:31.457Z,17.00
2023-04-18T08:33:00.431Z,18.37
2023-04-18T08:35:27.630Z,15.57
2023-04-18T08:37:54.519Z,17.10
2023-04-18T08:40:21.577Z,17.60
2023-04-18T08:42:49.216Z,17.00
2023-04-18T08:45:16.325Z,17.10
2023-04-18T08:47:43.320Z,15.97
2023-04-18T08:50:11.222Z,17.90
2023-04-18T08:52:40.173Z,15.10
2023-04-18T08:55:09.353Z,16.60
2023-04-18T08:57:36.507Z,15.07
2023-04-18T09:00:09.241Z,17.40
2023-04-18T09:02:42.077Z,17.57
2023-04-18T09:05:21.231Z,18.47
2023-04-18T09:07:53.234Z,16.67
2023-04-18T09:10:32.629Z,13.90
2023-04-18T09:13:04.272Z,14.70
2023-04-18T09:15:31.471Z,14.13
2023-04-18T09:18:02.313Z,14.20
2023-04-18T09:20:41.036Z,27.40
2023-04-18T09:23:16.629Z,18.93
2023-04-18T09:25:48.602Z,15.03
2023-04-18T09:28:29.677Z,15.37
2023-04-18T09:31:12.004Z,14.20
2023-04-18T09:33:44.733Z,12.97
2023-04-18T09:36:23.780Z,13.63
2023-04-18T09:38:55.354Z,12.17
2023-04-18T09:41:23.474Z,14.40
2023-04-18T09:43:58.732Z,10.80
2023-04-18T09:46:27.345Z,11.77
2023-04-18T09:48:54.265Z,11.60
2023-04-18T09:51:21.508Z,11.20
2023-04-18T09:53:50.251Z,13.60
2023-04-18T09:56:28.763Z,12.80
2023-04-18T09:59:08.567Z,13.27
2023-04-18T10:01:36.480Z,12.73
2023-04-18T10:04:06.539Z,13.27
2023-04-18T10:06:39.644Z,13.93
2023-04-18T10:09:09.752Z,14.53
2023-04-18T10:11:36.922Z,13.30
2023-04-18T10:14:10.088Z,13.77
2023-04-18T10:16:37.897Z,11.97
2023-04-18T10:19:26.154Z,12.73
2023-04-18T10:22:01.074Z,11.23
2023-04-18T10:24:56.259Z,12.60
2023-04-18T10:27:47.754Z,11.20
2023-04-18T10:30:18.595Z,11.03
2023-04-18T10:32:48.641Z,11.73
2023-04-18T10:35:15.567Z,10.97
2023-04-18T10:37:52.643Z,10.37
2023-04-18T10:40:34.130Z,11.53
2023-04-18T10:43:01.500Z,9.83
2023-04-18T10:45:31.280Z,9.10
2023-04-18T10:48:25.993Z,9.47
2023-04-18T10:51:19.155Z,9.30
2023-04-18T10:53:54.472Z,9.57
2023-04-18T10:56:21.836Z,8.47
2023-04-18T10:58:53.215Z,9.00
2023-04-18T11:01:32.377Z,9.20
2023-04-18T11:04:01.312Z,8.00
2023-04-18T11:06:29.077Z,9.60
2023-04-18T11:09:12.565Z,9.33
2023-04-18T11:11:40.264Z,9.00
2023-04-18T11:14:07.476Z,8.10
2023-04-18T11:16:34.658Z,8.03
2023-04-18T11:19:18.840Z,8.77
2023-04-18T11:21:45.785Z,9.43
2023-04-18T11:24:21.560Z,8.43
2023-04-18T11:26:48.450Z,8.27
2023-04-18T11:29:18.035Z,9.10
2023-04-18T11:31:56.624Z,8.60
2023-04-18T11:34:30.574Z,10.70
2023-04-18T11:36:57.836Z,10.63
2023-04-18T11:39:25.203Z,11.77
2023-04-18T11:41:52.180Z,9.93
2023-04-18T11:44:24.666Z,9.90
2023-04-18T11:46:52.492Z,9.67
2023-04-18T11:49:32.791Z,9.73
2023-04-18T11:52:01.315Z,9.90
2023-04-18T11:54:38.793Z,8.93
2023-04-18T11:57:07.019Z,9.67
2023-04-18T11:59:33.985Z,9.07
2023-04-18T12:02:14.881Z,9.27
2023-04-18T12:04:57.512Z,11.53
2023-04-18T12:07:40.006Z,12.40
2023-04-18T12:10:17.263Z,9.90
2023-04-18T12:12:55.281Z,10.03
2023-04-18T12:15:28.210Z,10.67
2023-04-18T12:18:01.401Z,9.80
2023-04-18T12:20:46.005Z,10.50
2023-04-18T12:23:40.034Z,11.13
2023-04-18T12:26:12.351Z,10.37
2023-04-18T12:28:39.322Z,10.93
2023-04-18T12:31:07.277Z,9.97
2023-04-18T12:33:36.555Z,10.83
2023-04-18T12:36:05.362Z,11.50
2023-04-18T12:38:32.245Z,9.67
2023-04-18T12:40:59.043Z,10.37
2023-04-18T12:43:25.886Z,10.50
2023-04-18T12:45:52.711Z,9.73
2023-04-18T12:48:19.531Z,9.33
2023-04-18T12:50:46.375Z,11.07
2023-04-18T12:53:13.240Z,10.00
2023-04-18T12:55:40.236Z,11.00
2023-04-18T12:58:07.154Z,10.20
2023-04-18T13:00:34.098Z,9.97
2023-04-18T13:03:01.426Z,7.37
2023-04-18T13:05:32.596Z,7.10
2023-04-18T13:10:31.387Z,7.10
2023-04-18T13:12:58.424Z,8.20
2023-04-18T13:15:26.121Z,8.57
2023-04-18T13:17:55.824Z,8.97
2023-04-18T13:20:22.747Z,8.87
2023-04-18T13:22:49.671Z,9.10
2023-04-18T13:25:16.932Z,8.17
2023-04-18T13:27:45.169Z,10.37
2023-04-18T13:30:12.336Z,9.90
2023-04-18T13:32:40.371Z,10.20
2023-04-18T13:35:08.845Z,10.00
2023-04-18T13:37:36.079Z,10.10
2023-04-18T13:40:05.514Z,10.73
2023-04-18T13:42:37.163Z,10.40
2023-04-18T13:45:04.724Z,10.37
2023-04-18T13:47:31.718Z,10.97
2023-04-18T13:49:58.577Z,10.80
2023-04-18T13:52:25.843Z,9.70
2023-04-18T13:54:52.876Z,11.20
2023-04-18T13:57:19.767Z,10.93
2023-04-18T13:59:46.851Z,10.87
2023-04-18T14:02:14.333Z,10.63
2023-04-18T14:04:41.496Z,11.50
2023-04-18T14:07:09.023Z,12.17
2023-04-18T14:09:36.060Z,12.10
2023-04-18T14:12:02.901Z,11.67
2023-04-18T14:14:29.955Z,12.40
2023-04-18T14:16:56.911Z,11.03
2023-04-18T14:19:23.969Z,12.87
2023-04-18T14:21:50.871Z,11.30
2023-04-18T14:24:17.920Z,11.87
2023-04-18T14:26:44.734Z,10.33
2023-04-18T14:29:11.717Z,11.30
2023-04-18T14:31:38.645Z,12.30
2023-04-18T14:34:05.755Z,11.30
2023-04-18T14:36:32.695Z,10.53
2023-04-18T14:38:59.585Z,10.47
2023-04-18T14:41:26.845Z,12.17
2023-04-18T14:43:53.731Z,12.63
2023-04-18T14:46:21.306Z,10.87
2023-04-18T14:48:48.245Z,10.53
2023-04-18T14:51:16.668Z,9.40
2023-04-18T14:53:44.942Z,9.93
2023-04-18T14:56:12.246Z,9.63
2023-04-18T14:58:39.082Z,11.27
2023-04-18T15:01:05.966Z,11.00
2023-04-18T15:03:33.354Z,11.03
2023-04-18T15:06:00.519Z,10.93
2023-04-18T15:08:27.635Z,10.00
2023-04-18T15:10:54.484Z,11.23
2023-04-18T15:13:21.272Z,11.83
2023-04-18T15:15:56.199Z,11.87
2023-04-18T15:18:23.178Z,11.60
2023-04-18T15:20:51.571Z,10.40
2023-04-18T15:23:18.498Z,11.43
2023-04-18T15:25:46.419Z,11.57
2023-04-18T15:28:13.993Z,11.13
2023-04-18T15:30:41.028Z,11.90
2023-04-18T15:33:08.578Z,11.60
2023-04-18T15:35:36.072Z,10.30
2023-04-18T15:38:03.037Z,9.87
2023-04-18T15:40:30.389Z,9.17
2023-04-18T15:42:59.362Z,9.10
2023-04-18T15:45:26.269Z,9.43
2023-04-18T15:47:53.342Z,9.20
2023-04-18T15:50:20.503Z,9.37
2023-04-18T15:52:47.447Z,10.37
2023-04-18T15:55:14.335Z,11.10
2023-04-18T15:57:42.078Z,10.90
2023-04-18T16:00:17.407Z,10.47
2023-04-18T16:02:46.033Z,9.90
2023-04-18T16:05:13.766Z,10.33
2023-04-18T16:07:42.134Z,9.67
2023-04-18T16:10:10.293Z,10.20
2023-04-18T16:12:39.020Z,10.57
2023-04-18T16:15:08.608Z,9.97
2023-04-18T16:17:37.075Z,9.17
2023-04-18T16:20:09.081Z,9.57
2023-04-18T16:22:36.984Z,9.50
2023-04-18T16:25:04.733Z,9.73
2023-04-18T16:27:32.331Z,9.13
2023-04-18T16:29:59.261Z,9.50
2023-04-18T16:32:26.371Z,9.40
2023-04-18T16:34:53.256Z,9.53
2023-04-18T16:37:20.343Z,9.23
2023-04-18T16:39:47.433Z,8.97
2023-04-18T16:42:15.686Z,9.77
2023-04-18T16:44:44.701Z,10.90
2023-04-18T16:47:11.669Z,9.73
2023-04-18T16:49:38.611Z,10.47
2023-04-18T16:52:05.482Z,10.50
2023-04-18T16:54:32.328Z,8.97
2023-04-18T16:56:59.241Z,9.47
2023-04-18T16:59:26.075Z,9.43
2023-04-18T17:01:53.028Z,9.87
2023-04-18T17:04:19.977Z,10.07
2023-04-18T17:06:46.983Z,11.20
2023-04-18T17:09:14.725Z,10.83
2023-04-18T17:11:41.908Z,10.07
2023-04-18T17:14:08.926Z,10.40
2023-04-18T17:16:42.300Z,11.70
2023-04-18T17:19:10.574Z,12.10
2023-04-18T17:21:38.302Z,10.63
2023-04-18T17:24:06.974Z,12.13
2023-04-18T17:26:35.771Z,11.73
2023-04-18T17:29:04.260Z,11.90
2023-04-18T17:31:31.974Z,11.60
2023-04-18T17:33:59.668Z,13.13
2023-04-18T17:36:27.227Z,12.43
2023-04-18T17:38:54.149Z,11.90
2023-04-18T17:41:21.886Z,13.70
2023-04-18T17:43:53.476Z,12.43
2023-04-18T17:46:20.477Z,12.57
2023-04-18T17:48:47.355Z,13.20
2023-04-18T17:51:16.249Z,12.27
2023-04-18T17:53:43.245Z,13.13
2023-04-18T17:56:10.077Z,12.77
2023-04-18T17:58:39.861Z,11.60
2023-04-18T18:01:26.154Z,11.93
2023-04-18T18:03:54.060Z,12.30
2023-04-18T18:06:21.322Z,12.77
2023-04-18T18:08:48.186Z,12.73
2023-04-18T18:11:15.152Z,11.37
2023-04-18T18:13:42.378Z,13.53
2023-04-18T18:16:09.211Z,10.87
2023-04-18T18:18:39.708Z,11.87
2023-04-18T18:21:06.676Z,11.47
2023-04-18T18:23:33.489Z,11.37
2023-04-18T18:26:00.690Z,11.30
2023-04-18T18:28:27.743Z,10.60
2023-04-18T18:30:54.570Z,12.47
2023-04-18T18:33:21.438Z,10.43
2023-04-18T18:35:48.369Z,10.43
2023-04-18T18:38:15.208Z,10.03
2023-04-18T18:40:42.207Z,9.57
2023-04-18T18:43:12.647Z,9.97
2023-04-18T18:45:39.474Z,10.70
2023-04-18T18:48:10.092Z,10.97
2023-04-18T18:50:37.198Z,11.00
2023-04-18T18:53:08.651Z,10.30
2023-04-18T18:55:35.482Z,11.50
2023-04-18T18:58:02.586Z,11.43
2023-04-18T19:00:29.425Z,11.63
2023-04-18T19:02:56.460Z,12.77
2023-04-18T19:05:23.491Z,11.50
2023-04-18T19:07:51.547Z,11.87
2023-04-18T19:10:21.583Z,11.67
2023-04-18T19:12:49.040Z,11.87
2023-04-18T19:15:15.940Z,11.80
2023-04-18T19:17:42.915Z,12.57
2023-04-18T19:20:09.995Z,11.10
2023-04-18T19:22:40.976Z,12.00
2023-04-18T19:25:10.607Z,11.27
2023-04-18T19:27:40.830Z,11.80
2023-04-18T19:30:09.017Z,12.10
2023-04-18T19:32:35.926Z,13.07
2023-04-18T19:35:05.796Z,12.53
2023-04-18T19:37:32.908Z,12.50
2023-04-18T19:39:59.736Z,11.77
2023-04-18T19:42:27.254Z,13.63
2023-04-18T19:44:54.303Z,10.63
2023-04-18T19:47:24.137Z,11.93
2023-04-18T19:49:51.145Z,12.50
2023-04-18T19:52:21.537Z,12.10
2023-04-18T19:54:48.793Z,10.77
2023-04-18T19:57:15.716Z,10.43
2023-04-18T19:59:43.240Z,11.63
2023-04-18T20:02:10.319Z,11.37
2023-04-18T20:04:37.594Z,10.07
2023-04-18T20:07:04.634Z,12.87
2023-04-18T20:09:31.498Z,10.57
2023-04-18T20:12:00.567Z,10.17
2023-04-18T20:14:28.722Z,10.17
2023-04-18T20:16:56.644Z,10.23
2023-04-18T20:19:25.708Z,13.27
2023-04-18T20:21:52.919Z,11.10
2023-04-18T20:24:21.157Z,10.47
2023-04-18T20:26:48.118Z,12.00
2023-04-18T20:29:15.367Z,11.07
2023-04-18T20:31:45.155Z,10.10
2023-04-18T20:34:12.059Z,9.53
2023-04-18T20:36:44.586Z,10.40
2023-04-18T20:39:13.100Z,10.50
2023-04-18T20:41:46.403Z,10.60
2023-04-18T20:44:14.052Z,13.53
2023-04-18T20:46:42.690Z,9.33
2023-04-18T20:49:09.857Z,10.87
2023-04-18T20:51:37.961Z,9.57
2023-04-18T20:54:05.657Z,10.20
2023-04-18T20:56:33.726Z,10.60
2023-04-18T20:59:00.823Z,11.10
2023-04-18T21:01:27.741Z,11.70
2023-04-18T21:03:54.702Z,11.13
2023-04-18T21:06:22.132Z,11.77
2023-04-18T21:08:49.097Z,11.17
2023-04-18T21:11:15.955Z,11.13
2023-04-18T21:13:42.820Z,11.33
2023-04-18T21:16:10.571Z,12.23
2023-04-18T21:18:37.597Z,11.83
2023-04-18T21:21:05.399Z,10.80
2023-04-18T21:23:32.227Z,11.27
2023-04-18T21:25:59.007Z,10.87
2023-04-18T21:28:25.907Z,11.23
2023-04-18T21:30:52.711Z,12.23
2023-04-18T21:33:19.599Z,11.03
2023-04-18T21:35:46.394Z,10.77
2023-04-18T21:38:13.872Z,11.27
2023-04-18T21:40:40.659Z,10.93
2023-04-18T21:43:07.525Z,11.40
2023-04-18T21:45:34.348Z,10.20
2023-04-18T21:48:01.264Z,10.03
2023-04-18T21:50:28.217Z,10.10
2023-04-18T21:52:55.167Z,9.70
2023-04-18T21:55:22.025Z,10.60
2023-04-18T21:57:48.838Z,9.17
2023-04-18T22:00:16.543Z,10.00
2023-04-18T22:02:43.642Z,10.00
2023-04-18T22:05:12.871Z,9.37
2023-04-18T22:07:54.393Z,9.10
2023-04-18T22:10:25.102Z,9.63
2023-04-18T22:12:55.755Z,8.77
2023-04-18T22:15:24.085Z,9.40
2023-04-18T22:17:50.978Z,10.20
2023-04-18T22:20:17.915Z,8.90
2023-04-18T22:22:44.887Z,8.97
2023-04-18T22:25:11.858Z,8.90
2023-04-18T22:27:39.509Z,8.67
2023-04-18T22:30:07.311Z,9.23
2023-04-18T22:32:34.167Z,9.43
2023-04-18T22:35:02.593Z,10.93
2023-04-18T22:37:29.524Z,9.63
2023-04-18T22:39:56.323Z,10.57
2023-04-18T22:42:23.183Z,10.57
2023-04-18T22:44:50.088Z,10.20
2023-04-18T22:47:16.906Z,10.80
2023-04-18T22:49:44.384Z,10.80
2023-04-18T22:52:11.853Z,11.73
2023-04-18T22:54:42.251Z,11.13
2023-04-18T22:57:09.136Z,11.80
2023-04-18T22:59:36.069Z,10.63
2023-04-18T23:02:03.037Z,10.93
2023-04-18T23:04:30.175Z,11.20
2023-04-18T23:06:57.089Z,11.80
2023-04-18T23:09:24.476Z,12.03
2023-04-18T23:11:51.337Z,12.00
2023-04-18T23:14:18.294Z,12.07
2023-04-18T23:16:45.259Z,12.03
2023-04-18T23:19:12.044Z,12.00
2023-04-18T23:21:38.883Z,12.30
2023-04-18T23:24:06.441Z,12.97
2023-04-18T23:26:33.295Z,12.90
2023-04-18T23:29:00.239Z,14.07
2023-04-18T23:31:27.166Z,13.37
2023-04-18T23:33:54.731Z,13.57
2023-04-18T23:36:21.559Z,13.23
2023-04-18T23:38:48.347Z,12.70
2023-04-18T23:41:15.172Z,12.50
2023-04-18T23:43:42.024Z,13.10
2023-04-18T23:46:08.963Z,13.33
2023-04-18T23:48:35.926Z,14.07
2023-04-18T23:51:02.744Z,14.10
2023-04-18T23:53:29.612Z,14.07
2023-04-18T23:55:56.507Z,13.90
2023-04-18T23:58:23.308Z,14.07
